Time;durP1;ratioP1;P1;durP2;ratioP2;P2;SDS_P1;SDS_P2;PMS_P1;PMS_P2;Temp;Humidity;BMP_temperature;BMP_pressure;BME280_temperature;BME280_humidity;BME280_pressure;Samples;Min_cycle;Max_cycle;Signal;HPM_P1;HPM_P2
2021/12/21 00:02:07;;;;;;;;;;;-0.20;99.90;;;;;;5020192;28;20478;-68
2021/12/21 00:04:33;;;;;;;;;;;-0.20;99.90;;;;;;5021240;28;20179;-67
2021/12/21 00:07:01;;;;;;;;;;;-0.20;99.90;;;;;;5020931;28;19925;-67
2021/12/21 00:09:27;;;;;;;;;;;-0.20;99.90;;;;;;5020475;28;20433;-68
2021/12/21 00:11:54;;;;;;;;;;;-0.20;99.90;;;;;;5020796;28;19929;-68
2021/12/21 00:14:31;;;;;;;;;;;-0.20;99.90;;;;;;5021198;28;20046;-68
2021/12/21 00:19:47;;;;;;;;;;;-0.20;99.90;;;;;;5007207;28;19925;-68
2021/12/21 00:22:56;;;;;;;;;;;-0.20;99.90;;;;;;5000662;28;19956;-68
2021/12/21 00:25:12;;;;;;;;;;;-0.20;99.90;;;;;;5000770;28;19956;-68
2021/12/21 00:27:39;;;;;;;;;;;-0.30;99.90;;;;;;5000984;28;19996;-68
2021/12/21 00:30:06;;;;;;;;;;;-0.20;99.90;;;;;;4998686;28;19921;-68
2021/12/21 00:32:32;;;;;;;;;;;-0.20;99.90;;;;;;4998879;28;20361;-68
2021/12/21 00:34:59;;;;;;;;;;;-0.30;99.90;;;;;;4999200;28;20345;-68
2021/12/21 00:37:28;;;;;;;;;;;-0.30;99.90;;;;;;4999058;28;19929;-68
2021/12/21 00:39:54;;;;;;;;;;;-0.30;99.90;;;;;;4997389;28;19932;-68
2021/12/21 00:42:21;;;;;;;;;;;-0.30;99.90;;;;;;4997618;28;19961;-68
2021/12/21 00:44:48;;;;;;;;;;;-0.40;99.90;;;;;;4996573;28;19926;-68
2021/12/21 00:47:16;;;;;;;;;;;-0.40;99.90;;;;;;4995000;28;19929;-69
2021/12/21 00:49:46;;;;;;;;;;;-0.40;99.90;;;;;;4994321;28;19953;-67
2021/12/21 00:52:13;;;;;;;;;;;-0.40;99.90;;;;;;4995483;28;19967;-69
2021/12/21 00:54:40;;;;;;;;;;;-0.40;99.90;;;;;;5007725;28;19929;-68
2021/12/21 00:57:08;;;;;;;;;;;-0.50;99.90;;;;;;5014919;28;19978;-68
2021/12/21 00:59:34;;;;;;;;;;;-0.50;99.90;;;;;;5014305;28;20160;-67
2021/12/21 01:02:01;;;;;;;;;;;-0.50;99.90;;;;;;5014321;28;20079;-68
2021/12/21 01:04:35;;;;;;;;;;;-0.50;99.90;;;;;;5015899;28;19932;-68
2021/12/21 01:07:09;;;;;;;;;;;-0.60;99.90;;;;;;5015459;28;19929;-68
2021/12/21 01:12:08;;;;;;;;;;;-0.60;99.90;;;;;;5016701;28;19925;-68
2021/12/21 01:15:03;;;;;;;;;;;-0.60;99.90;;;;;;5016389;28;20389;-69
2021/12/21 01:17:46;;;;;;;;;;;-0.60;99.90;;;;;;5015343;28;19956;-68
2021/12/21 01:20:27;;;;;;;;;;;-0.60;99.90;;;;;;4996529;28;19999;-68
2021/12/21 01:23:38;;;;;;;;;;;-0.60;99.90;;;;;;4999991;28;20341;-68
2021/12/21 01:26:07;;;;;;;;;;;-0.60;99.90;;;;;;5001937;28;19929;-68
2021/12/21 01:28:43;;;;;;;;;;;-0.60;99.90;;;;;;5002324;28;19999;-68
2021/12/21 01:34:35;;;;;;;;;;;-0.70;99.90;;;;;;5003726;28;19964;-68
2021/12/21 01:39:38;;;;;;;;;;;-0.80;99.90;;;;;;5021859;28;19925;-67
2021/12/21 01:50:11;;;;;;;;;;;-0.90;99.90;;;;;;5022057;28;19995;-68
2021/12/21 01:52:38;;;;;;;;;;;-0.90;99.90;;;;;;5023527;28;19925;-67
2021/12/21 01:55:05;;;;;;;;;;;-1.00;99.90;;;;;;5023018;28;19928;-68
2021/12/21 01:57:32;;;;;;;;;;;-1.00;99.90;;;;;;5023994;28;20559;-68
2021/12/21 01:59:59;;;;;;;;;;;-1.00;99.90;;;;;;5021475;28;19932;-68
2021/12/21 02:02:25;;;;;;;;;;;-1.00;99.90;;;;;;5021073;28;19925;-68
2021/12/21 02:04:52;;;;;;;;;;;-1.00;99.90;;;;;;5024347;28;19925;-68
2021/12/21 02:07:19;;;;;;;;;;;-1.10;99.90;;;;;;5023367;28;20295;-68
2021/12/21 02:09:46;;;;;;;;;;;-1.00;99.90;;;;;;5021919;28;20412;-67
2021/12/21 02:12:14;;;;;;;;;;;-1.10;99.90;;;;;;5023173;28;19925;-68
2021/12/21 02:14:41;;;;;;;;;;;-1.10;99.90;;;;;;5022726;28;19932;-67
2021/12/21 02:17:36;;;;;;;;;;;-1.10;99.90;;;;;;5022178;28;20388;-69
2021/12/21 02:20:12;;;;;;;;;;;-1.10;99.90;;;;;;5021405;28;20408;-68
2021/12/21 02:22:44;;;;;;;;;;;-1.10;99.90;;;;;;5016415;28;20292;-68
2021/12/21 02:25:36;;;;;;;;;;;-1.20;99.90;;;;;;5008836;28;19925;-67
2021/12/21 02:30:38;;;;;;;;;;;-1.10;99.90;;;;;;5000781;28;19933;-68
2021/12/21 02:33:05;;;;;;;;;;;-1.20;99.90;;;;;;5001938;28;20003;-68
2021/12/21 02:35:31;;;;;;;;;;;-1.10;99.90;;;;;;5002202;28;19925;-68
2021/12/21 02:37:58;;;;;;;;;;;-1.10;99.90;;;;;;5002330;28;19938;-67
2021/12/21 02:40:25;;;;;;;;;;;-1.10;99.90;;;;;;5002858;28;20236;-68
2021/12/21 02:42:51;;;;;;;;;;;-1.00;99.90;;;;;;5017228;28;20333;-68
2021/12/21 02:45:18;;;;;;;;;;;-1.00;99.90;;;;;;5002278;28;20452;-68
2021/12/21 02:47:45;;;;;;;;;;;-1.00;99.90;;;;;;5002610;28;19948;-68
2021/12/21 02:50:12;;;;;;;;;;;-1.00;99.90;;;;;;5001212;28;19952;-67
2021/12/21 02:52:38;;;;;;;;;;;-1.00;99.90;;;;;;5000988;28;20286;-68
2021/12/21 02:55:06;;;;;;;;;;;-1.00;99.90;;;;;;5017634;28;20039;-67
2021/12/21 02:57:33;;;;;;;;;;;-1.00;99.90;;;;;;5021331;28;20674;-68
2021/12/21 03:00:02;;;;;;;;;;;-1.00;99.90;;;;;;5020350;28;20354;-68
2021/12/21 03:02:31;;;;;;;;;;;-1.00;99.90;;;;;;5022343;28;20031;-68
2021/12/21 03:04:58;;;;;;;;;;;-1.00;99.90;;;;;;5020777;28;20304;-68
2021/12/21 03:10:13;;;;;;;;;;;-1.10;99.90;;;;;;5020945;28;20035;-68
2021/12/21 03:15:17;;;;;;;;;;;-1.00;99.90;;;;;;5020935;28;20382;-68
2021/12/21 03:17:43;;;;;;;;;;;-1.10;99.90;;;;;;5020749;28;19925;-68
2021/12/21 03:20:10;;;;;;;;;;;-1.10;99.90;;;;;;5020733;28;20344;-68
2021/12/21 03:22:37;;;;;;;;;;;-1.10;99.90;;;;;;5019891;28;19925;-68
2021/12/21 03:25:04;;;;;;;;;;;-1.10;99.90;;;;;;5021225;28;20392;-68
2021/12/21 03:27:30;;;;;;;;;;;-1.10;99.90;;;;;;5020757;28;20127;-69
2021/12/21 03:29:57;;;;;;;;;;;-1.20;99.90;;;;;;5018136;28;20428;-67
2021/12/21 03:32:24;;;;;;;;;;;-1.20;99.90;;;;;;5020211;28;20510;-68
2021/12/21 03:34:51;;;;;;;;;;;-1.10;99.90;;;;;;5020761;28;20035;-68
2021/12/21 03:37:17;;;;;;;;;;;-1.20;99.90;;;;;;5020683;28;20348;-68
2021/12/21 03:39:45;;;;;;;;;;;-1.20;99.90;;;;;;5020749;28;19920;-68
2021/12/21 03:42:13;;;;;;;;;;;-1.20;99.90;;;;;;5021318;28;20221;-68
2021/12/21 03:44:40;;;;;;;;;;;-1.20;99.90;;;;;;5021008;28;19925;-69
2021/12/21 03:47:10;;;;;;;;;;;-1.20;99.90;;;;;;5021032;28;20284;-68
2021/12/21 03:52:15;;;;;;;;;;;-1.10;99.90;;;;;;5020612;28;19925;-67
2021/12/21 03:54:43;;;;;;;;;;;-1.20;99.90;;;;;;5020901;28;19963;-68
2021/12/21 03:57:10;;;;;;;;;;;-1.20;99.90;;;;;;5020860;28;20035;-68
2021/12/21 03:59:37;;;;;;;;;;;-1.20;99.90;;;;;;5019719;28;19925;-68
2021/12/21 04:02:04;;;;;;;;;;;-1.20;99.90;;;;;;5016198;28;19928;-68
2021/12/21 04:04:31;;;;;;;;;;;-1.20;99.90;;;;;;5020995;28;19960;-68
2021/12/21 04:06:57;;;;;;;;;;;-1.20;99.90;;;;;;5020245;28;19925;-69
2021/12/21 04:09:24;;;;;;;;;;;-1.20;99.90;;;;;;5019872;28;19975;-67
2021/12/21 04:11:51;;;;;;;;;;;-1.20;99.90;;;;;;5020398;28;20385;-67
2021/12/21 04:14:18;;;;;;;;;;;-1.20;99.90;;;;;;5019315;28;20003;-67
2021/12/21 04:16:46;;;;;;;;;;;-1.20;99.90;;;;;;5019626;28;20684;-67
2021/12/21 04:19:13;;;;;;;;;;;-1.20;99.90;;;;;;5018806;28;19990;-68
2021/12/21 04:21:40;;;;;;;;;;;-1.20;99.90;;;;;;5019868;28;19925;-68
2021/12/21 04:24:07;;;;;;;;;;;-1.20;99.90;;;;;;5019745;28;19957;-68
2021/12/21 04:26:34;;;;;;;;;;;-1.30;99.90;;;;;;5020235;28;19969;-69
2021/12/21 04:29:00;;;;;;;;;;;-1.30;99.90;;;;;;5019656;28;20375;-68
2021/12/21 04:31:28;;;;;;;;;;;-1.30;99.90;;;;;;5019992;28;19929;-68
2021/12/21 04:33:55;;;;;;;;;;;-1.30;99.90;;;;;;5020158;28;20016;-68
2021/12/21 04:36:22;;;;;;;;;;;-1.30;99.90;;;;;;5018694;28;19971;-68
2021/12/21 04:38:49;;;;;;;;;;;-1.30;99.90;;;;;;5018619;28;19975;-68
2021/12/21 04:41:27;;;;;;;;;;;-1.30;99.90;;;;;;5017516;28;20023;-69
2021/12/21 04:43:55;;;;;;;;;;;-1.30;99.90;;;;;;5018054;28;20503;-68
2021/12/21 04:46:22;;;;;;;;;;;-1.30;99.90;;;;;;5018122;28;19952;-67
2021/12/21 04:48:49;;;;;;;;;;;-1.20;99.90;;;;;;5016842;28;19971;-67
2021/12/21 04:51:16;;;;;;;;;;;-1.30;99.90;;;;;;5017118;28;19925;-68
2021/12/21 04:53:42;;;;;;;;;;;-1.20;99.90;;;;;;5016927;28;19925;-67
2021/12/21 04:56:09;;;;;;;;;;;-1.30;99.90;;;;;;5015173;28;19925;-67
2021/12/21 04:58:36;;;;;;;;;;;-1.20;99.90;;;;;;5015489;28;19925;-66
2021/12/21 05:01:03;;;;;;;;;;;-1.30;99.90;;;;;;5014224;28;19982;-67
2021/12/21 05:03:30;;;;;;;;;;;-1.20;99.90;;;;;;5015313;28;20326;-67
2021/12/21 05:05:57;;;;;;;;;;;-1.20;99.90;;;;;;5014469;28;19925;-66
2021/12/21 05:08:27;;;;;;;;;;;-1.20;99.90;;;;;;5015159;28;20416;-66
2021/12/21 05:10:57;;;;;;;;;;;-1.20;99.90;;;;;;5013989;28;20111;-68
2021/12/21 05:13:25;;;;;;;;;;;-1.20;99.90;;;;;;5014930;28;20332;-68
2021/12/21 05:15:52;;;;;;;;;;;-1.20;99.90;;;;;;5015057;28;19928;-69
2021/12/21 05:18:19;;;;;;;;;;;-1.20;99.90;;;;;;5014017;28;19935;-68
2021/12/21 05:20:46;;;;;;;;;;;-1.20;99.90;;;;;;5013769;28;20006;-69
2021/12/21 05:23:13;;;;;;;;;;;-1.20;99.90;;;;;;5014299;28;19928;-68
2021/12/21 05:25:40;;;;;;;;;;;-1.20;99.90;;;;;;5013209;28;20439;-67
2021/12/21 05:28:08;;;;;;;;;;;-1.20;99.90;;;;;;5013929;28;19964;-67
2021/12/21 05:30:35;;;;;;;;;;;-1.20;99.90;;;;;;5013352;28;19967;-67
2021/12/21 05:33:02;;;;;;;;;;;-1.20;99.90;;;;;;5015018;28;19975;-67
2021/12/21 05:35:30;;;;;;;;;;;-1.30;99.90;;;;;;5014604;28;19980;-67
2021/12/21 05:38:01;;;;;;;;;;;-1.20;99.90;;;;;;5015240;28;19952;-67
2021/12/21 05:40:33;;;;;;;;;;;-1.20;99.90;;;;;;5014479;28;19960;-67
2021/12/21 05:43:00;;;;;;;;;;;-1.20;99.90;;;;;;5014153;28;20098;-67
2021/12/21 05:45:27;;;;;;;;;;;-1.20;99.90;;;;;;5014754;28;19956;-68
2021/12/21 05:47:54;;;;;;;;;;;-1.20;99.90;;;;;;5015080;28;19925;-68
2021/12/21 05:50:21;;;;;;;;;;;-1.20;99.90;;;;;;5012143;28;20197;-68
2021/12/21 05:52:48;;;;;;;;;;;-1.20;99.90;;;;;;5014682;28;20308;-68
2021/12/21 05:55:16;;;;;;;;;;;-1.20;99.90;;;;;;5014782;28;20014;-67
2021/12/21 05:57:43;;;;;;;;;;;-1.20;99.90;;;;;;5014773;28;19925;-68
2021/12/21 06:00:11;;;;;;;;;;;-1.20;99.90;;;;;;5015306;28;19960;-67
2021/12/21 06:02:38;;;;;;;;;;;-1.20;99.90;;;;;;5015147;28;19937;-67
2021/12/21 06:05:05;;;;;;;;;;;-1.10;99.90;;;;;;5015467;28;20208;-68
2021/12/21 06:07:32;;;;;;;;;;;-1.10;99.90;;;;;;5016521;28;19960;-67
2021/12/21 06:10:07;;;;;;;;;;;-1.10;99.90;;;;;;5018725;28;19929;-66
2021/12/21 06:15:47;;;;;;;;;;;-1.10;99.90;;;;;;5016408;28;19924;-68
2021/12/21 06:26:14;;;;;;;;;;;-1.10;99.90;;;;;;5018235;28;20047;-67
2021/12/21 06:28:41;;;;;;;;;;;-1.10;99.90;;;;;;5018215;28;19960;-67
2021/12/21 06:31:08;;;;;;;;;;;-1.10;99.90;;;;;;5016493;28;19941;-68
2021/12/21 06:33:35;;;;;;;;;;;-1.10;99.90;;;;;;5017930;28;19925;-67
2021/12/21 06:36:03;;;;;;;;;;;-1.10;99.90;;;;;;5016794;28;20646;-68
2021/12/21 06:38:29;;;;;;;;;;;-1.10;99.90;;;;;;5019950;28;20542;-67
2021/12/21 06:40:56;;;;;;;;;;;-1.10;99.90;;;;;;5019465;28;19924;-67
2021/12/21 06:43:23;;;;;;;;;;;-1.20;99.90;;;;;;5018591;28;19972;-68
2021/12/21 06:46:05;;;;;;;;;;;-1.20;99.90;;;;;;5017418;28;20295;-59
2021/12/21 06:51:23;;;;;;;;;;;-1.20;99.90;;;;;;5016284;28;20263;-59
2021/12/21 06:53:51;;;;;;;;;;;-1.20;99.90;;;;;;5016504;28;19925;-59
2021/12/21 06:56:24;;;;;;;;;;;-1.20;99.90;;;;;;5015947;28;19932;-59
2021/12/21 06:58:53;;;;;;;;;;;-1.20;99.90;;;;;;5015086;28;20011;-58
2021/12/21 07:01:20;;;;;;;;;;;-1.30;99.90;;;;;;5016079;28;19979;-58
2021/12/21 07:03:47;;;;;;;;;;;-1.30;99.90;;;;;;5015196;28;19955;-59
2021/12/21 07:06:16;;;;;;;;;;;-1.20;99.90;;;;;;5015793;28;19924;-58
2021/12/21 07:08:46;;;;;;;;;;;-1.30;99.90;;;;;;5016200;28;20443;-59
2021/12/21 07:11:23;;;;;;;;;;;-1.30;99.90;;;;;;5015055;28;19979;-59
2021/12/21 07:19:21;;;;;;;;;;;-1.30;99.90;;;;;;5013446;28;20408;-58
2021/12/21 07:21:47;;;;;;;;;;;-1.30;99.90;;;;;;5013930;28;20375;-58
2021/12/21 07:24:14;;;;;;;;;;;-1.30;99.90;;;;;;5015069;28;19929;-58
2021/12/21 07:26:41;;;;;;;;;;;-1.30;99.90;;;;;;5015244;28;19925;-58
2021/12/21 07:29:07;;;;;;;;;;;-1.30;99.90;;;;;;5001027;28;20058;-58
2021/12/21 07:31:34;;;;;;;;;;;-1.30;99.90;;;;;;5010212;28;19933;-58
2021/12/21 07:34:02;;;;;;;;;;;-1.30;99.90;;;;;;5014845;28;19928;-58
2021/12/21 07:36:32;;;;;;;;;;;-1.30;99.90;;;;;;5011408;28;19972;-58
2021/12/21 07:39:00;;;;;;;;;;;-1.30;99.90;;;;;;5014184;28;19924;-58
2021/12/21 07:41:27;;;;;;;;;;;-1.30;99.90;;;;;;5014444;28;20393;-58
2021/12/21 07:43:54;;;;;;;;;;;-1.30;99.90;;;;;;5013970;28;20416;-58
2021/12/21 07:46:21;;;;;;;;;;;-1.20;99.90;;;;;;5015008;28;20031;-58
2021/12/21 07:48:47;;;;;;;;;;;-1.20;99.90;;;;;;5012376;28;19933;-58
2021/12/21 07:51:14;;;;;;;;;;;-1.20;99.90;;;;;;5013304;28;20468;-58
2021/12/21 07:53:42;;;;;;;;;;;-1.30;99.90;;;;;;5014834;28;20555;-59
2021/12/21 07:56:09;;;;;;;;;;;-1.30;99.90;;;;;;5013369;28;19925;-58
2021/12/21 07:58:36;;;;;;;;;;;-1.30;99.90;;;;;;5014391;28;19978;-60
2021/12/21 08:01:04;;;;;;;;;;;-1.30;99.90;;;;;;5013731;28;19932;-58
2021/12/21 08:03:33;;;;;;;;;;;-1.20;99.90;;;;;;5014642;28;19925;-58
2021/12/21 08:06:03;;;;;;;;;;;-1.30;99.90;;;;;;5014742;28;19925;-58
2021/12/21 08:08:31;;;;;;;;;;;-1.30;99.90;;;;;;5014449;28;19925;-57
2021/12/21 08:13:35;;;;;;;;;;;-1.20;99.90;;;;;;5014319;28;19944;-58
2021/12/21 08:16:01;;;;;;;;;;;-1.30;99.90;;;;;;5012740;28;20521;-58
2021/12/21 08:18:28;;;;;;;;;;;-1.30;99.90;;;;;;5013394;28;19936;-57
2021/12/21 08:20:55;;;;;;;;;;;-1.30;99.90;;;;;;5013434;28;19925;-58
2021/12/21 08:23:22;;;;;;;;;;;-1.30;99.90;;;;;;5014288;28;19995;-57
2021/12/21 08:25:49;;;;;;;;;;;-1.30;99.90;;;;;;5013821;28;20383;-57
2021/12/21 08:28:15;;;;;;;;;;;-1.30;99.90;;;;;;5014298;28;20455;-57
2021/12/21 08:30:42;;;;;;;;;;;-1.30;99.90;;;;;;5012772;28;20434;-57
2021/12/21 08:33:09;;;;;;;;;;;-1.40;99.90;;;;;;5013944;28;19982;-58
2021/12/21 08:35:36;;;;;;;;;;;-1.40;99.90;;;;;;5013673;28;19954;-57
2021/12/21 08:38:08;;;;;;;;;;;-1.40;99.90;;;;;;5014236;28;19929;-57
2021/12/21 08:40:38;;;;;;;;;;;-1.40;99.90;;;;;;5013323;28;20278;-58
2021/12/21 08:43:14;;;;;;;;;;;-1.50;99.90;;;;;;5013520;28;19921;-58
2021/12/21 08:45:42;;;;;;;;;;;-1.50;99.90;;;;;;5013776;28;20494;-58
2021/12/21 08:48:10;;;;;;;;;;;-1.60;99.90;;;;;;5013433;28;20152;-58
2021/12/21 08:50:37;;;;;;;;;;;-1.60;99.90;;;;;;5013243;28;19924;-58
2021/12/21 08:53:04;;;;;;;;;;;-1.60;99.90;;;;;;5011907;28;20234;-58
2021/12/21 08:55:30;;;;;;;;;;;-1.60;99.90;;;;;;5012680;28;19933;-57
2021/12/21 08:57:57;;;;;;;;;;;-1.50;99.90;;;;;;5014129;28;19979;-58
2021/12/21 09:00:24;;;;;;;;;;;-1.50;99.90;;;;;;5013149;28;19925;-58
2021/12/21 09:02:51;;;;;;;;;;;-1.50;99.90;;;;;;5013888;28;19924;-57
2021/12/21 09:05:21;;;;;;;;;;;-1.40;99.90;;;;;;5014072;28;20546;-56
2021/12/21 09:07:48;;;;;;;;;;;-1.40;99.90;;;;;;5013877;28;19924;-56
2021/12/21 09:10:19;;;;;;;;;;;-1.40;99.90;;;;;;5014283;28;20452;-59
2021/12/21 09:12:46;;;;;;;;;;;-1.50;99.90;;;;;;5012275;28;20677;-65
2021/12/21 09:15:13;;;;;;;;;;;-1.40;99.90;;;;;;5015224;28;19925;-58
2021/12/21 09:19:41;;;;;;;62.63;27.45;;;-1.40;99.90;;;;;;5054762;27;20139;-67
2021/12/21 09:22:08;;;;;;;;;;;-1.40;99.90;;;;;;5041285;28;20045;-58
2021/12/21 09:24:35;;;;;;;58.45;27.70;;;-1.40;99.90;;;;;;5029748;28;19960;-58
2021/12/21 09:27:02;;;;;;;;;;;-1.40;99.90;;;;;;5020279;28;20061;-57
2021/12/21 09:29:28;;;;;;;51.38;25.63;;;-1.40;99.90;;;;;;5008264;28;19959;-59
2021/12/21 09:31:55;;;;;;;61.47;30.23;;;-1.40;99.90;;;;;;5010486;28;20061;-57
2021/12/21 09:34:22;;;;;;;;;;;-1.40;99.90;;;;;;5011057;28;20046;-57
2021/12/21 09:36:49;;;;;;;61.30;29.60;;;-1.40;99.90;;;;;;5010378;28;19932;-59
2021/12/21 09:39:15;;;;;;;63.97;29.73;;;-1.40;99.90;;;;;;5009539;28;20049;-56
2021/12/21 09:41:42;;;;;;;58.05;26.67;;;-1.40;99.90;;;;;;5009815;28;20053;-58
2021/12/21 09:44:10;;;;;;;;;;;-1.40;99.90;;;;;;5010686;28;20135;-59
2021/12/21 09:46:37;;;;;;;61.95;28.02;;;-1.40;99.90;;;;;;5009763;28;19924;-55
2021/12/21 09:49:04;;;;;;;59.95;29.13;;;-1.30;99.90;;;;;;5009416;28;20068;-55
2021/12/21 09:51:30;;;;;;;58.97;28.40;;;-1.30;99.90;;;;;;5009915;28;20053;-59
2021/12/21 09:53:57;;;;;;;;;;;-1.30;99.90;;;;;;5005417;28;20534;-59
2021/12/21 09:56:24;;;;;;;59.78;29.52;;;-1.20;99.90;;;;;;4991681;28;19957;-59
2021/12/21 09:58:51;;;;;;;60.80;30.15;;;-1.20;99.90;;;;;;4989839;28;20105;-59
2021/12/21 10:01:21;;;;;;;56.22;27.88;;;-1.20;99.90;;;;;;4988531;28;20050;-60
2021/12/21 10:03:48;;;;;;;56.80;28.67;;;-1.20;99.90;;;;;;4989906;28;20078;-59
2021/12/21 10:06:15;;;;;;;58.13;28.77;;;-1.10;99.90;;;;;;4990564;28;20038;-59
2021/12/21 10:08:42;;;;;;;60.65;29.05;;;-1.10;99.90;;;;;;4988151;28;20096;-59
2021/12/21 10:11:18;;;;;;;70.88;30.77;;;-1.10;99.90;;;;;;4988495;28;20046;-59
2021/12/21 10:13:46;;;;;;;54.13;27.73;;;-1.00;99.90;;;;;;4990123;28;20100;-59
2021/12/21 10:16:17;;;;;;;59.10;29.23;;;-1.00;99.90;;;;;;4989257;28;20874;-59
2021/12/21 10:18:44;;;;;;;64.38;32.00;;;-1.00;99.90;;;;;;5007943;28;20700;-59
2021/12/21 10:21:14;;;;;;;61.40;29.65;;;-1.00;99.90;;;;;;5008275;28;20053;-58
2021/12/21 10:23:43;;;;;;;57.47;28.10;;;-1.00;99.90;;;;;;5007337;28;20045;-62
2021/12/21 10:26:28;;;;;;;62.58;30.55;;;-1.00;99.90;;;;;;5009355;28;20081;-58
2021/12/21 10:29:05;;;;;;;59.85;30.05;;;-1.00;99.90;;;;;;5007703;28;20049;-57
2021/12/21 10:31:39;;;;;;;56.63;30.17;;;-1.00;99.90;;;;;;4995633;28;20042;-58
2021/12/21 10:34:15;;;;;;;62.65;28.63;;;-1.00;99.90;;;;;;4995571;28;20065;-59
2021/12/21 10:36:50;;;;;;;61.85;28.77;;;-1.00;99.90;;;;;;4996544;28;20096;-57
2021/12/21 10:39:22;;;;;;;72.22;30.90;;;-1.10;99.90;;;;;;4994763;28;20578;-57
2021/12/21 10:41:52;;;;;;;62.70;28.60;;;-1.10;99.90;;;;;;4995432;28;20511;-57
2021/12/21 10:44:20;;;;;;;69.18;32.47;;;-1.20;99.90;;;;;;4995449;28;20074;-59
2021/12/21 10:46:52;;;;;;;63.88;31.33;;;-1.20;99.90;;;;;;4995567;28;20046;-59
2021/12/21 10:49:35;;;;;;;63.28;29.42;;;-1.20;99.90;;;;;;4994228;28;20346;-59
2021/12/21 10:52:09;;;;;;;56.92;28.92;;;-1.20;99.90;;;;;;5010715;28;20495;-59
2021/12/21 10:54:43;;;;;;;70.30;31.92;;;-1.20;99.90;;;;;;4986418;28;20623;-58
2021/12/21 10:57:31;;;;;;;62.65;30.40;;;-1.20;99.90;;;;;;4975206;28;20475;-58
2021/12/21 11:00:17;;;;;;;;;;;-1.20;99.90;;;;;;4975967;28;20073;-58
2021/12/21 11:02:45;;;;;;;49.63;25.63;;;-1.20;99.90;;;;;;4975419;28;19933;-59
2021/12/21 11:05:18;;;;;;;52.90;25.90;;;-1.20;99.90;;;;;;4976301;28;20459;-59
2021/12/21 11:10:17;;;;;;;;;;;-1.20;99.90;;;;;;4975246;28;20105;-58
2021/12/21 11:13:11;;;;;;;62.15;27.90;;;-1.10;99.90;;;;;;4976554;28;20159;-59
2021/12/21 11:15:44;;;;;;;65.95;30.73;;;-1.10;99.90;;;;;;4975798;28;20042;-59
2021/12/21 11:18:16;;;;;;;56.85;28.17;;;-1.10;99.90;;;;;;4989135;28;20045;-60
2021/12/21 11:20:48;;;;;;;56.97;27.75;;;-1.10;99.90;;;;;;4994623;28;20046;-59
2021/12/21 11:23:17;;;;;;;61.95;28.75;;;-1.10;99.90;;;;;;4995350;28;20049;-58
2021/12/21 11:25:46;;;;;;;62.20;29.08;;;-1.10;99.90;;;;;;4995020;28;20515;-59
2021/12/21 11:28:17;;;;;;;58.05;29.27;;;-1.10;99.90;;;;;;4995178;28;20519;-59
2021/12/21 11:30:44;;;;;;;62.22;30.58;;;-1.20;99.90;;;;;;4993492;28;20057;-59
2021/12/21 11:33:14;;;;;;;59.78;29.98;;;-1.20;99.90;;;;;;4994982;28;20111;-59
2021/12/21 11:38:10;;;;;;;55.55;27.38;;;-1.20;99.90;;;;;;4994428;28;20558;-59
2021/12/21 11:40:44;;;;;;;53.60;27.52;;;-1.20;99.90;;;;;;4995165;28;20554;-59
2021/12/21 11:43:27;;;;;;;60.60;28.83;;;-1.20;99.90;;;;;;5010290;28;20100;-58
2021/12/21 11:46:07;;;;;;;61.35;28.02;;;-1.20;99.90;;;;;;4996174;28;20053;-58
2021/12/21 11:48:52;;;;;;;50.80;24.98;;;-1.10;99.90;;;;;;4995871;28;20570;-59
2021/12/21 11:51:24;;;;;;;54.40;25.67;;;-1.10;99.90;;;;;;4996111;28;20053;-59
2021/12/21 11:53:52;;;;;;;54.25;26.90;;;-1.00;99.90;;;;;;4988747;28;20046;-58
2021/12/21 11:56:25;;;;;;;54.33;27.45;;;-0.90;99.90;;;;;;4991211;28;20050;-59
2021/12/21 11:58:54;;;;;;;61.95;27.63;;;-0.90;99.90;;;;;;4974155;28;20050;-58
2021/12/21 12:01:26;;;;;;;51.30;26.48;;;-0.80;99.90;;;;;;4973797;28;20058;-58
2021/12/21 12:04:06;;;;;;;45.22;23.65;;;-0.80;99.90;;;;;;4974740;28;20499;-57
2021/12/21 12:06:51;;;;;;;52.20;26.05;;;-0.80;99.90;;;;;;4974953;28;20054;-58
2021/12/21 12:09:30;;;;;;;58.85;29.08;;;-0.80;99.90;;;;;;4973515;28;20357;-59
2021/12/21 12:12:12;;;;;;;52.70;25.10;;;-0.80;99.90;;;;;;4974715;28;20278;-58
2021/12/21 12:14:44;;;;;;;46.47;23.75;;;-0.90;99.90;;;;;;4974702;28;20073;-57
2021/12/21 12:17:23;;;;;;;47.95;25.05;;;-0.90;99.90;;;;;;4980606;28;20100;-59
2021/12/21 12:19:53;;;;;;;50.70;25.75;;;-0.90;99.90;;;;;;4993221;28;20467;-59
2021/12/21 12:22:38;;;;;;;51.08;26.73;;;-0.90;99.90;;;;;;4993363;28;20544;-59
2021/12/21 12:25:13;;;;;;;51.95;24.67;;;-0.90;99.90;;;;;;4975015;28;20524;-58
2021/12/21 12:27:45;;;;;;;55.13;25.35;;;-0.80;99.90;;;;;;4975114;28;20070;-59
2021/12/21 12:30:16;;;;;;;54.13;25.98;;;-0.80;99.90;;;;;;4972503;28;20700;-59
2021/12/21 12:32:47;;;;;;;53.45;25.70;;;-0.80;99.90;;;;;;4974279;28;20042;-59
2021/12/21 12:35:24;;;;;;;48.20;24.48;;;-0.80;99.90;;;;;;4976947;28;20148;-59
2021/12/21 12:37:53;;;;;;;;;;;-0.80;99.90;;;;;;4996800;28;20092;-59
2021/12/21 12:40:24;;;;;;;50.60;25.45;;;-0.80;99.90;;;;;;4995036;28;19979;-58
2021/12/21 12:43:09;;;;;;;48.70;25.08;;;-0.70;99.90;;;;;;4997192;28;20045;-58
2021/12/21 12:45:45;;;;;;;56.63;26.13;;;-0.70;99.90;;;;;;4996471;28;20042;-58
2021/12/21 12:48:36;;;;;;;55.97;25.92;;;-0.70;99.90;;;;;;4997271;28;20053;-59
2021/12/21 12:51:06;;;;;;;53.33;25.25;;;-0.70;99.90;;;;;;4996524;28;20042;-58
2021/12/21 12:53:40;;;;;;;48.05;25.45;;;-0.70;99.90;;;;;;4996427;28;20092;-58
2021/12/21 12:56:09;;;;;;;53.38;26.38;;;-0.70;99.90;;;;;;4993581;28;20042;-59
2021/12/21 12:58:57;;;;;;;52.40;25.90;;;-0.70;99.90;;;;;;4996394;28;20488;-59
2021/12/21 13:01:27;;;;;;;47.80;24.15;;;-0.70;99.90;;;;;;4996972;28;20500;-58
2021/12/21 13:03:59;;;;;;;50.80;25.02;;;-0.70;99.90;;;;;;4995986;28;20042;-59
2021/12/21 13:06:29;;;;;;;43.60;23.90;;;-0.70;99.90;;;;;;4996277;28;20518;-58
2021/12/21 13:08:56;;;;;;;44.17;23.15;;;-0.60;99.90;;;;;;4994945;28;20465;-59
2021/12/21 13:11:28;;;;;;;47.75;24.35;;;-0.70;99.90;;;;;;4995332;28;20060;-59
2021/12/21 13:13:57;;;;;;;43.50;24.13;;;-0.70;99.90;;;;;;4995348;28;20549;-59
2021/12/21 13:16:27;;;;;;;45.20;23.17;;;-0.70;99.90;;;;;;4993007;28;20483;-58
2021/12/21 13:19:09;;;;;;;42.03;23.85;;;-0.70;99.90;;;;;;4983815;28;20046;-58
2021/12/21 13:21:44;;;;;;;45.85;24.48;;;-0.70;99.90;;;;;;4994725;28;20080;-58
2021/12/21 13:24:17;;;;;;;45.83;23.35;;;-0.70;99.90;;;;;;4994989;28;20092;-59
2021/12/21 13:26:53;;;;;;;44.72;23.20;;;-0.70;99.90;;;;;;4991998;28;20084;-59
2021/12/21 13:29:39;;;;;;;41.58;21.17;;;-0.70;99.90;;;;;;4973217;28;20050;-57
2021/12/21 13:32:14;;;;;;;45.33;23.15;;;-0.70;99.90;;;;;;4975361;28;20136;-58
2021/12/21 13:34:44;;;;;;;41.72;21.30;;;-0.70;99.90;;;;;;4975132;28;20531;-57
2021/12/21 13:37:18;;;;;;;40.40;22.08;;;-0.70;99.90;;;;;;4993486;28;20069;-57
2021/12/21 13:39:48;;;;;;;40.53;21.50;;;-0.80;99.90;;;;;;5007990;28;20655;-56
2021/12/21 13:42:21;;;;;;;41.33;22.13;;;-0.80;99.90;;;;;;4995326;28;20107;-57
2021/12/21 13:44:56;;;;;;;46.50;23.27;;;-0.80;99.90;;;;;;5009305;28;20112;-59
2021/12/21 13:47:22;;;;;;;44.25;21.98;;;-0.70;99.90;;;;;;4995080;28;20042;-60
2021/12/21 13:50:05;;;;;;;38.85;21.55;;;-0.70;99.90;;;;;;4994378;28;20053;-60
2021/12/21 13:52:41;;;;;;;48.90;23.08;;;-0.80;99.90;;;;;;4995361;28;20057;-59
2021/12/21 13:55:19;;;;;;;42.72;22.08;;;-0.80;99.90;;;;;;4982051;28;20540;-59
2021/12/21 13:57:50;;;;;;;39.47;21.55;;;-0.80;99.90;;;;;;4975666;28;20355;-59
2021/12/21 14:00:17;;;;;;;45.05;23.75;;;-0.80;99.90;;;;;;4974194;28;20050;-59
2021/12/21 14:03:01;;;;;;;41.05;22.17;;;-0.80;99.90;;;;;;4974922;28;20456;-59
2021/12/21 14:05:43;;;;;;;38.53;20.70;;;-0.80;99.90;;;;;;4977386;28;20042;-59
2021/12/21 14:08:11;;;;;;;35.67;18.77;;;-0.80;99.90;;;;;;4977009;28;20054;-59
2021/12/21 14:10:44;;;;;;;41.78;21.30;;;-0.90;99.90;;;;;;4978452;28;20540;-59
2021/12/21 14:13:11;;;;;;;43.67;22.27;;;-0.80;99.90;;;;;;4993532;28;20524;-59
2021/12/21 14:15:42;;;;;;;;;;;-0.80;99.90;;;;;;4979510;28;20070;-59
2021/12/21 14:18:28;;;;;;;37.45;20.05;;;-0.90;99.90;;;;;;4993472;28;19987;-59
2021/12/21 14:21:05;;;;;;;39.78;20.70;;;-0.90;99.90;;;;;;4997470;28;20754;-59
2021/12/21 14:23:34;;;;;;;;;;;-0.90;99.90;;;;;;4998719;28;20046;-59
2021/12/21 14:26:11;;;;;;;37.83;20.27;;;-0.90;99.90;;;;;;4998875;28;19925;-59
2021/12/21 14:28:43;;;;;;;;;;;-0.90;99.90;;;;;;4998663;28;20050;-60
2021/12/21 14:31:10;;;;;;;40.40;21.00;;;-0.90;99.90;;;;;;4997299;28;20665;-59
2021/12/21 14:33:45;;;;;;;43.78;22.88;;;-0.90;99.90;;;;;;4998441;28;20509;-57
2021/12/21 14:36:15;;;;;;;43.70;23.25;;;-0.90;99.90;;;;;;4997618;28;20096;-59
2021/12/21 14:38:55;;;;;;;47.33;22.17;;;-0.90;99.90;;;;;;4998887;28;20042;-58
2021/12/21 14:41:31;;;;;;;47.17;23.70;;;-1.00;99.90;;;;;;4997721;28;20038;-58
2021/12/21 14:44:23;;;;;;;40.30;22.38;;;-1.00;99.90;;;;;;4998484;28;20144;-58
2021/12/21 14:47:05;;;;;;;50.58;23.65;;;-1.00;99.90;;;;;;4998306;28;20061;-58
2021/12/21 14:49:45;;;;;;;41.67;22.42;;;-1.00;99.90;;;;;;4997974;28;20049;-58
2021/12/21 14:52:19;;;;;;;45.70;23.75;;;-1.10;99.90;;;;;;4998162;28;20042;-58